sensor_id;sensor_type;location;lat;lon;timestamp;temperature;humidity
8633;DHT22;4354;49.832;10.746;2023-04-03T00:00:44;0.90;99.90
8633;DHT22;4354;49.832;10.746;2023-04-03T00:03:11;1.00;99.90
8633;DHT22;4354;49.832;10.746;2023-04-03T00:05:38;1.00;99.90
8633;DHT22;4354;49.832;10.746;2023-04-03T00:08:05;1.00;99.90
8633;DHT22;4354;49.832;10.746;2023-04-03T00:10:34;1.00;99.90
8633;DHT22;4354;49.832;10.746;2023-04-03T00:13:03;0.90;99.90
8633;DHT22;4354;49.832;10.746;2023-04-03T00:15:30;1.00;99.90
8633;DHT22;4354;49.832;10.746;2023-04-03T00:17:56;1.00;99.90
8633;DHT22;4354;49.832;10.746;2023-04-03T00:20:23;1.00;99.90
8633;DHT22;4354;49.832;10.746;2023-04-03T00:22:50;1.00;99.90
8633;DHT22;4354;49.832;10.746;2023-04-03T00:25:17;1.00;99.90
8633;DHT22;4354;49.832;10.746;2023-04-03T00:27:44;0.90;99.90
8633;DHT22;4354;49.832;10.746;2023-04-03T00:30:15;0.90;99.90
8633;DHT22;4354;49.832;10.746;2023-04-03T00:32:42;0.80;99.90
8633;DHT22;4354;49.832;10.746;2023-04-03T00:35:09;0.80;99.90
8633;DHT22;4354;49.832;10.746;2023-04-03T00:37:36;0.80;99.90
8633;DHT22;4354;49.832;10.746;2023-04-03T00:40:04;0.80;99.90
8633;DHT22;4354;49.832;10.746;2023-04-03T00:42:30;0.80;99.90
8633;DHT22;4354;49.832;10.746;2023-04-03T00:47:24;0.90;99.90
8633;DHT22;4354;49.832;10.746;2023-04-03T00:49:52;0.90;99.90
8633;DHT22;4354;49.832;10.746;2023-04-03T00:52:25;0.80;99.90
8633;DHT22;4354;49.832;10.746;2023-04-03T00:54:54;0.80;99.90
8633;DHT22;4354;49.832;10.746;2023-04-03T00:57:23;0.80;99.90
8633;DHT22;4354;49.832;10.746;2023-04-03T00:59:54;0.90;99.90
8633;DHT22;4354;49.832;10.746;2023-04-03T01:02:22;0.90;99.90
8633;DHT22;4354;49.832;10.746;2023-04-03T01:04:49;1.00;99.90
8633;DHT22;4354;49.832;10.746;2023-04-03T01:09:43;1.10;99.90
8633;DHT22;4354;49.832;10.746;2023-04-03T01:12:21;1.10;99.90
8633;DHT22;4354;49.832;10.746;2023-04-03T01:14:51;1.20;99.90
8633;DHT22;4354;49.832;10.746;2023-04-03T01:17:31;1.20;99.90
8633;DHT22;4354;49.832;10.746;2023-04-03T01:25:56;1.30;99.90
8633;DHT22;4354;49.832;10.746;2023-04-03T01:28:28;1.30;99.90
8633;DHT22;4354;49.832;10.746;2023-04-03T01:31:00;1.40;99.90
8633;DHT22;4354;49.832;10.746;2023-04-03T01:33:28;1.40;99.90
8633;DHT22;4354;49.832;10.746;2023-04-03T01:35:56;1.40;99.90
8633;DHT22;4354;49.832;10.746;2023-04-03T01:38:23;1.40;99.90
8633;DHT22;4354;49.832;10.746;2023-04-03T01:40:50;1.50;99.90
8633;DHT22;4354;49.832;10.746;2023-04-03T01:43:17;1.50;99.90
8633;DHT22;4354;49.832;10.746;2023-04-03T01:45:43;1.50;99.90
8633;DHT22;4354;49.832;10.746;2023-04-03T01:48:10;1.50;99.90
8633;DHT22;4354;49.832;10.746;2023-04-03T01:50:37;1.50;99.90
8633;DHT22;4354;49.832;10.746;2023-04-03T01:53:04;1.40;99.90
8633;DHT22;4354;49.832;10.746;2023-04-03T01:55:31;1.40;99.90
8633;DHT22;4354;49.832;10.746;2023-04-03T01:57:58;1.40;99.90
8633;DHT22;4354;49.832;10.746;2023-04-03T02:00:25;1.40;99.90
8633;DHT22;4354;49.832;10.746;2023-04-03T02:02:53;1.50;99.90
8633;DHT22;4354;49.832;10.746;2023-04-03T02:05:19;1.50;99.90
8633;DHT22;4354;49.832;10.746;2023-04-03T02:07:46;1.60;99.90
8633;DHT22;4354;49.832;10.746;2023-04-03T02:10:13;1.60;99.90
8633;DHT22;4354;49.832;10.746;2023-04-03T02:12:40;1.80;99.90
8633;DHT22;4354;49.832;10.746;2023-04-03T02:15:07;1.80;99.90
8633;DHT22;4354;49.832;10.746;2023-04-03T02:17:35;1.90;99.90
8633;DHT22;4354;49.832;10.746;2023-04-03T02:20:02;2.00;99.90
8633;DHT22;4354;49.832;10.746;2023-04-03T02:22:29;2.10;99.90
8633;DHT22;4354;49.832;10.746;2023-04-03T02:24:56;2.20;99.90
8633;DHT22;4354;49.832;10.746;2023-04-03T02:27:23;2.30;99.90
8633;DHT22;4354;49.832;10.746;2023-04-03T02:29:50;2.30;99.90
8633;DHT22;4354;49.832;10.746;2023-04-03T02:32:16;2.30;99.90
8633;DHT22;4354;49.832;10.746;2023-04-03T02:34:43;2.30;99.90
8633;DHT22;4354;49.832;10.746;2023-04-03T02:37:10;2.40;99.90
8633;DHT22;4354;49.832;10.746;2023-04-03T02:39:37;2.40;99.90
8633;DHT22;4354;49.832;10.746;2023-04-03T02:42:03;2.50;99.90
8633;DHT22;4354;49.832;10.746;2023-04-03T02:44:31;2.50;99.90
8633;DHT22;4354;49.832;10.746;2023-04-03T02:46:57;2.50;99.90
8633;DHT22;4354;49.832;10.746;2023-04-03T02:49:24;2.50;99.90
8633;DHT22;4354;49.832;10.746;2023-04-03T02:51:51;2.50;99.90
8633;DHT22;4354;49.832;10.746;2023-04-03T02:54:18;2.50;99.90
8633;DHT22;4354;49.832;10.746;2023-04-03T02:56:44;2.50;99.90
8633;DHT22;4354;49.832;10.746;2023-04-03T02:59:11;2.50;99.90
8633;DHT22;4354;49.832;10.746;2023-04-03T03:01:38;2.50;99.90
8633;DHT22;4354;49.832;10.746;2023-04-03T03:04:05;2.50;99.90
8633;DHT22;4354;49.832;10.746;2023-04-03T03:06:31;2.50;99.90
8633;DHT22;4354;49.832;10.746;2023-04-03T03:08:58;2.50;99.90
8633;DHT22;4354;49.832;10.746;2023-04-03T03:11:25;2.50;99.90
8633;DHT22;4354;49.832;10.746;2023-04-03T03:13:52;2.50;99.90
8633;DHT22;4354;49.832;10.746;2023-04-03T03:16:19;2.50;99.90
8633;DHT22;4354;49.832;10.746;2023-04-03T03:18:45;2.50;99.90
8633;DHT22;4354;49.832;10.746;2023-04-03T03:21:13;2.50;99.90
8633;DHT22;4354;49.832;10.746;2023-04-03T03:23:40;2.50;99.90
8633;DHT22;4354;49.832;10.746;2023-04-03T03:26:08;2.50;99.90
8633;DHT22;4354;49.832;10.746;2023-04-03T03:28:37;2.50;99.90
8633;DHT22;4354;49.832;10.746;2023-04-03T03:31:04;2.50;99.90
8633;DHT22;4354;49.832;10.746;2023-04-03T03:33:32;2.50;99.90
8633;DHT22;4354;49.832;10.746;2023-04-03T03:35:59;2.50;99.90
8633;DHT22;4354;49.832;10.746;2023-04-03T03:38:26;2.50;99.90
8633;DHT22;4354;49.832;10.746;2023-04-03T03:40:53;2.40;99.90
8633;DHT22;4354;49.832;10.746;2023-04-03T03:43:20;2.40;99.90
8633;DHT22;4354;49.832;10.746;2023-04-03T03:45:51;2.30;99.90
8633;DHT22;4354;49.832;10.746;2023-04-03T03:48:19;2.30;99.90
8633;DHT22;4354;49.832;10.746;2023-04-03T03:50:47;2.30;99.90
8633;DHT22;4354;49.832;10.746;2023-04-03T03:53:14;2.30;99.90
8633;DHT22;4354;49.832;10.746;2023-04-03T03:55:41;2.20;99.90
8633;DHT22;4354;49.832;10.746;2023-04-03T03:58:08;2.30;99.90
8633;DHT22;4354;49.832;10.746;2023-04-03T04:00:35;2.20;99.90
8633;DHT22;4354;49.832;10.746;2023-04-03T04:03:02;2.30;99.90
8633;DHT22;4354;49.832;10.746;2023-04-03T04:05:28;2.20;99.90
8633;DHT22;4354;49.832;10.746;2023-04-03T04:07:55;2.20;99.90
8633;DHT22;4354;49.832;10.746;2023-04-03T04:10:22;2.20;99.90
8633;DHT22;4354;49.832;10.746;2023-04-03T04:12:49;2.20;99.90
8633;DHT22;4354;49.832;10.746;2023-04-03T04:15:18;2.20;99.90
8633;DHT22;4354;49.832;10.746;2023-04-03T04:17:45;2.20;99.90
8633;DHT22;4354;49.832;10.746;2023-04-03T04:20:12;2.20;99.90
8633;DHT22;4354;49.832;10.746;2023-04-03T04:22:38;2.20;99.90
8633;DHT22;4354;49.832;10.746;2023-04-03T04:25:06;2.20;99.90
8633;DHT22;4354;49.832;10.746;2023-04-03T04:27:33;2.20;99.90
8633;DHT22;4354;49.832;10.746;2023-04-03T04:29:59;2.10;99.90
8633;DHT22;4354;49.832;10.746;2023-04-03T04:32:27;2.00;99.90
8633;DHT22;4354;49.832;10.746;2023-04-03T04:34:53;1.90;99.90
8633;DHT22;4354;49.832;10.746;2023-04-03T04:37:20;1.80;99.90
8633;DHT22;4354;49.832;10.746;2023-04-03T04:39:47;1.70;99.90
8633;DHT22;4354;49.832;10.746;2023-04-03T04:42:14;1.70;99.90
8633;DHT22;4354;49.832;10.746;2023-04-03T04:44:43;1.60;99.90
8633;DHT22;4354;49.832;10.746;2023-04-03T04:47:10;1.50;99.90
8633;DHT22;4354;49.832;10.746;2023-04-03T04:52:09;1.50;99.90
8633;DHT22;4354;49.832;10.746;2023-04-03T04:54:36;1.50;99.90
8633;DHT22;4354;49.832;10.746;2023-04-03T04:57:02;1.40;99.90
8633;DHT22;4354;49.832;10.746;2023-04-03T04:59:29;1.40;99.90
8633;DHT22;4354;49.832;10.746;2023-04-03T05:01:56;1.30;99.90
8633;DHT22;4354;49.832;10.746;2023-04-03T05:04:23;1.30;99.90
8633;DHT22;4354;49.832;10.746;2023-04-03T05:06:50;1.40;99.90
8633;DHT22;4354;49.832;10.746;2023-04-03T05:09:17;1.30;99.90
8633;DHT22;4354;49.832;10.746;2023-04-03T05:11:44;1.30;99.90
8633;DHT22;4354;49.832;10.746;2023-04-03T05:14:11;1.30;99.90
8633;DHT22;4354;49.832;10.746;2023-04-03T05:16:38;1.30;99.90
8633;DHT22;4354;49.832;10.746;2023-04-03T05:19:05;1.30;99.90
8633;DHT22;4354;49.832;10.746;2023-04-03T05:21:32;1.30;99.90
8633;DHT22;4354;49.832;10.746;2023-04-03T05:24:00;1.20;99.90
8633;DHT22;4354;49.832;10.746;2023-04-03T05:26:30;1.30;99.90
8633;DHT22;4354;49.832;10.746;2023-04-03T05:28:57;1.20;99.90
8633;DHT22;4354;49.832;10.746;2023-04-03T05:31:24;1.20;99.90
8633;DHT22;4354;49.832;10.746;2023-04-03T05:33:51;1.20;99.90
8633;DHT22;4354;49.832;10.746;2023-04-03T05:36:18;1.30;99.90
8633;DHT22;4354;49.832;10.746;2023-04-03T05:38:45;1.40;99.90
8633;DHT22;4354;49.832;10.746;2023-04-03T05:41:12;1.50;99.90
8633;DHT22;4354;49.832;10.746;2023-04-03T05:43:39;1.60;99.90
8633;DHT22;4354;49.832;10.746;2023-04-03T05:46:14;1.60;99.90
8633;DHT22;4354;49.832;10.746;2023-04-03T05:48:42;1.70;99.90
8633;DHT22;4354;49.832;10.746;2023-04-03T05:51:24;1.90;99.90
8633;DHT22;4354;49.832;10.746;2023-04-03T05:53:56;2.00;99.90
8633;DHT22;4354;49.832;10.746;2023-04-03T05:56:26;2.00;99.90
8633;DHT22;4354;49.832;10.746;2023-04-03T05:58:53;2.20;99.90
8633;DHT22;4354;49.832;10.746;2023-04-03T06:01:19;2.20;99.90
8633;DHT22;4354;49.832;10.746;2023-04-03T06:03:46;2.30;99.90
8633;DHT22;4354;49.832;10.746;2023-04-03T06:06:14;2.40;99.90
8633;DHT22;4354;49.832;10.746;2023-04-03T06:08:40;2.50;99.90
8633;DHT22;4354;49.832;10.746;2023-04-03T06:11:07;2.60;99.90
8633;DHT22;4354;49.832;10.746;2023-04-03T06:13:35;2.80;99.90
8633;DHT22;4354;49.832;10.746;2023-04-03T06:16:02;2.90;99.90
8633;DHT22;4354;49.832;10.746;2023-04-03T06:18:29;2.90;99.90
8633;DHT22;4354;49.832;10.746;2023-04-03T06:20:56;2.90;99.90
8633;DHT22;4354;49.832;10.746;2023-04-03T06:23:24;2.90;99.90
8633;DHT22;4354;49.832;10.746;2023-04-03T06:25:51;2.90;99.90
8633;DHT22;4354;49.832;10.746;2023-04-03T06:28:18;3.00;99.90
8633;DHT22;4354;49.832;10.746;2023-04-03T06:30:45;3.00;99.90
8633;DHT22;4354;49.832;10.746;2023-04-03T06:33:12;3.20;99.90
8633;DHT22;4354;49.832;10.746;2023-04-03T06:35:39;3.40;99.90
8633;DHT22;4354;49.832;10.746;2023-04-03T06:38:06;3.40;99.90
8633;DHT22;4354;49.832;10.746;2023-04-03T06:40:36;3.40;99.90
8633;DHT22;4354;49.832;10.746;2023-04-03T06:43:03;3.50;99.90
8633;DHT22;4354;49.832;10.746;2023-04-03T06:45:30;3.70;99.90
8633;DHT22;4354;49.832;10.746;2023-04-03T06:47:57;3.80;99.90
8633;DHT22;4354;49.832;10.746;2023-04-03T06:50:24;3.80;99.90
8633;DHT22;4354;49.832;10.746;2023-04-03T06:52:51;4.00;99.90
8633;DHT22;4354;49.832;10.746;2023-04-03T06:55:17;4.10;99.90
8633;DHT22;4354;49.832;10.746;2023-04-03T06:57:44;4.10;99.90
8633;DHT22;4354;49.832;10.746;2023-04-03T07:00:12;4.00;99.90
8633;DHT22;4354;49.832;10.746;2023-04-03T07:02:39;4.00;99.90
8633;DHT22;4354;49.832;10.746;2023-04-03T07:05:06;4.10;99.90
8633;DHT22;4354;49.832;10.746;2023-04-03T07:07:33;4.20;99.90
8633;DHT22;4354;49.832;10.746;2023-04-03T07:10:00;4.40;99.90
8633;DHT22;4354;49.832;10.746;2023-04-03T07:12:27;4.60;99.90
8633;DHT22;4354;49.832;10.746;2023-04-03T07:14:54;4.80;99.90
8633;DHT22;4354;49.832;10.746;2023-04-03T07:17:21;5.10;99.90
8633;DHT22;4354;49.832;10.746;2023-04-03T07:19:48;5.20;99.90
8633;DHT22;4354;49.832;10.746;2023-04-03T07:22:15;5.20;99.90
8633;DHT22;4354;49.832;10.746;2023-04-03T07:24:42;5.40;1.00
8633;DHT22;4354;49.832;10.746;2023-04-03T07:27:09;5.40;1.00
8633;DHT22;4354;49.832;10.746;2023-04-03T07:29:39;5.70;1.00
8633;DHT22;4354;49.832;10.746;2023-04-03T07:32:06;5.80;1.00
8633;DHT22;4354;49.832;10.746;2023-04-03T07:34:33;6.00;1.00
8633;DHT22;4354;49.832;10.746;2023-04-03T07:37:00;7.30;99.90
8633;DHT22;4354;49.832;10.746;2023-04-03T07:39:27;7.80;99.90
8633;DHT22;4354;49.832;10.746;2023-04-03T07:41:54;7.20;99.90
8633;DHT22;4354;49.832;10.746;2023-04-03T07:44:24;6.90;99.90
8633;DHT22;4354;49.832;10.746;2023-04-03T07:46:51;6.50;99.90
8633;DHT22;4354;49.832;10.746;2023-04-03T07:49:18;6.70;99.90
8633;DHT22;4354;49.832;10.746;2023-04-03T07:51:45;8.10;99.90
8633;DHT22;4354;49.832;10.746;2023-04-03T07:54:13;10.20;99.90
8633;DHT22;4354;49.832;10.746;2023-04-03T07:56:39;12.10;99.90
8633;DHT22;4354;49.832;10.746;2023-04-03T07:59:06;12.80;99.90
8633;DHT22;4354;49.832;10.746;2023-04-03T08:01:33;13.30;99.90
8633;DHT22;4354;49.832;10.746;2023-04-03T08:04:00;14.20;99.90
8633;DHT22;4354;49.832;10.746;2023-04-03T08:06:28;15.00;99.90
8633;DHT22;4354;49.832;10.746;2023-04-03T08:09:12;16.00;99.90
8633;DHT22;4354;49.832;10.746;2023-04-03T08:11:39;16.70;99.90
8633;DHT22;4354;49.832;10.746;2023-04-03T08:14:06;16.80;99.90
8633;DHT22;4354;49.832;10.746;2023-04-03T08:16:33;17.00;99.90
8633;DHT22;4354;49.832;10.746;2023-04-03T08:19:00;17.80;99.90
8633;DHT22;4354;49.832;10.746;2023-04-03T08:21:28;18.60;99.90
8633;DHT22;4354;49.832;10.746;2023-04-03T08:23:54;19.80;99.90
8633;DHT22;4354;49.832;10.746;2023-04-03T08:26:21;19.70;99.90
8633;DHT22;4354;49.832;10.746;2023-04-03T08:28:48;20.30;99.90
8633;DHT22;4354;49.832;10.746;2023-04-03T08:31:17;20.10;99.90
8633;DHT22;4354;49.832;10.746;2023-04-03T08:33:46;19.00;99.90
8633;DHT22;4354;49.832;10.746;2023-04-03T08:36:28;18.90;99.90
8633;DHT22;4354;49.832;10.746;2023-04-03T08:38:56;19.40;99.90
8633;DHT22;4354;49.832;10.746;2023-04-03T08:41:31;19.90;99.30
8633;DHT22;4354;49.832;10.746;2023-04-03T08:44:32;21.60;96.40
8633;DHT22;4354;49.832;10.746;2023-04-03T08:47:11;22.50;92.60
8633;DHT22;4354;49.832;10.746;2023-04-03T08:49:44;23.50;89.20
8633;DHT22;4354;49.832;10.746;2023-04-03T08:52:18;24.10;81.80
8633;DHT22;4354;49.832;10.746;2023-04-03T08:54:52;24.50;74.60
8633;DHT22;4354;49.832;10.746;2023-04-03T08:57:40;23.50;66.60
8633;DHT22;4354;49.832;10.746;2023-04-03T09:00:21;21.30;74.80
8633;DHT22;4354;49.832;10.746;2023-04-03T09:02:50;21.00;80.00
8633;DHT22;4354;49.832;10.746;2023-04-03T09:05:31;20.30;77.10
8633;DHT22;4354;49.832;10.746;2023-04-03T09:08:14;19.30;79.50
8633;DHT22;4354;49.832;10.746;2023-04-03T09:10:44;18.50;79.10
8633;DHT22;4354;49.832;10.746;2023-04-03T09:13:30;17.40;81.80
8633;DHT22;4354;49.832;10.746;2023-04-03T09:16:00;16.40;86.20
8633;DHT22;4354;49.832;10.746;2023-04-03T09:18:31;14.80;92.00
8633;DHT22;4354;49.832;10.746;2023-04-03T09:23:51;18.10;84.80
8633;DHT22;4354;49.832;10.746;2023-04-03T09:26:44;18.00;77.60
8633;DHT22;4354;49.832;10.746;2023-04-03T09:29:19;16.10;84.50
8633;DHT22;4354;49.832;10.746;2023-04-03T09:31:49;16.00;86.00
8633;DHT22;4354;49.832;10.746;2023-04-03T09:34:24;15.60;91.70
8633;DHT22;4354;49.832;10.746;2023-04-03T09:36:55;15.90;90.00
8633;DHT22;4354;49.832;10.746;2023-04-03T09:39:25;16.10;90.50
8633;DHT22;4354;49.832;10.746;2023-04-03T09:44:33;18.60;79.30
8633;DHT22;4354;49.832;10.746;2023-04-03T09:49:44;21.20;68.80
8633;DHT22;4354;49.832;10.746;2023-04-03T09:52:23;22.50;62.90
8633;DHT22;4354;49.832;10.746;2023-04-03T09:54:50;22.70;57.10
8633;DHT22;4354;49.832;10.746;2023-04-03T09:57:17;22.20;51.20
8633;DHT22;4354;49.832;10.746;2023-04-03T09:59:56;20.30;55.80
8633;DHT22;4354;49.832;10.746;2023-04-03T10:02:32;19.90;59.00
8633;DHT22;4354;49.832;10.746;2023-04-03T10:05:00;20.40;61.10
8633;DHT22;4354;49.832;10.746;2023-04-03T10:07:34;21.60;57.40
8633;DHT22;4354;49.832;10.746;2023-04-03T10:10:22;22.20;53.60
8633;DHT22;4354;49.832;10.746;2023-04-03T10:13:12;22.30;50.00
8633;DHT22;4354;49.832;10.746;2023-04-03T10:16:01;20.00;53.40
8633;DHT22;4354;49.832;10.746;2023-04-03T10:18:45;19.80;54.40
8633;DHT22;4354;49.832;10.746;2023-04-03T10:21:44;18.40;53.40
8633;DHT22;4354;49.832;10.746;2023-04-03T10:26:57;14.70;73.50
8633;DHT22;4354;49.832;10.746;2023-04-03T10:34:42;12.20;90.30
8633;DHT22;4354;49.832;10.746;2023-04-03T10:40:14;16.70;75.50
8633;DHT22;4354;49.832;10.746;2023-04-03T10:43:17;18.00;69.20
8633;DHT22;4354;49.832;10.746;2023-04-03T10:45:59;19.30;60.10
8633;DHT22;4354;49.832;10.746;2023-04-03T10:48:49;20.30;52.80
8633;DHT22;4354;49.832;10.746;2023-04-03T10:51:50;19.50;51.80
8633;DHT22;4354;49.832;10.746;2023-04-03T10:54:25;19.50;52.80
8633;DHT22;4354;49.832;10.746;2023-04-03T10:57:04;20.50;51.10
8633;DHT22;4354;49.832;10.746;2023-04-03T10:59:46;20.70;51.50
8633;DHT22;4354;49.832;10.746;2023-04-03T11:02:36;18.40;51.00
8633;DHT22;4354;49.832;10.746;2023-04-03T11:05:07;18.30;56.90
8633;DHT22;4354;49.832;10.746;2023-04-03T11:07:43;18.30;57.90
8633;DHT22;4354;49.832;10.746;2023-04-03T11:10:17;18.60;50.50
8633;DHT22;4354;49.832;10.746;2023-04-03T11:13:02;17.90;54.70
8633;DHT22;4354;49.832;10.746;2023-04-03T11:15:33;17.60;58.00
8633;DHT22;4354;49.832;10.746;2023-04-03T11:18:22;17.90;54.90
8633;DHT22;4354;49.832;10.746;2023-04-03T11:21:28;18.00;59.10
8633;DHT22;4354;49.832;10.746;2023-04-03T11:23:57;18.10;47.20
8633;DHT22;4354;49.832;10.746;2023-04-03T11:26:29;17.30;56.60
8633;DHT22;4354;49.832;10.746;2023-04-03T11:29:07;16.70;58.20
8633;DHT22;4354;49.832;10.746;2023-04-03T11:34:39;15.40;60.50
8633;DHT22;4354;49.832;10.746;2023-04-03T11:42:40;14.90;66.30
8633;DHT22;4354;49.832;10.746;2023-04-03T11:47:58;15.10;62.80
8633;DHT22;4354;49.832;10.746;2023-04-03T11:50:40;15.80;63.50
8633;DHT22;4354;49.832;10.746;2023-04-03T11:58:11;16.10;59.10
8633;DHT22;4354;49.832;10.746;2023-04-03T12:01:08;16.10;82.40
8633;DHT22;4354;49.832;10.746;2023-04-03T12:08:44;15.50;54.40
8633;DHT22;4354;49.832;10.746;2023-04-03T12:16:27;13.60;68.10
8633;DHT22;4354;49.832;10.746;2023-04-03T12:27:02;14.70;90.10
8633;DHT22;4354;49.832;10.746;2023-04-03T12:35:10;15.10;57.20
8633;DHT22;4354;49.832;10.746;2023-04-03T12:46:13;13.90;60.70
8633;DHT22;4354;49.832;10.746;2023-04-03T12:48:51;14.00;63.30
8633;DHT22;4354;49.832;10.746;2023-04-03T12:51:31;14.10;58.70
8633;DHT22;4354;49.832;10.746;2023-04-03T12:54:21;14.00;62.20
8633;DHT22;4354;49.832;10.746;2023-04-03T12:56:49;14.30;59.10
8633;DHT22;4354;49.832;10.746;2023-04-03T12:59:21;14.20;61.30
8633;DHT22;4354;49.832;10.746;2023-04-03T13:01:58;13.50;61.60
8633;DHT22;4354;49.832;10.746;2023-04-03T13:04:30;13.50;62.40
8633;DHT22;4354;49.832;10.746;2023-04-03T13:06:58;13.70;61.60
8633;DHT22;4354;49.832;10.746;2023-04-03T13:09:27;13.50;60.30
8633;DHT22;4354;49.832;10.746;2023-04-03T13:12:10;13.60;62.00
8633;DHT22;4354;49.832;10.746;2023-04-03T13:14:38;13.50;61.90
8633;DHT22;4354;49.832;10.746;2023-04-03T13:17:16;13.30;60.80
8633;DHT22;4354;49.832;10.746;2023-04-03T13:19:45;13.60;62.30
8633;DHT22;4354;49.832;10.746;2023-04-03T13:24:58;13.90;58.20
8633;DHT22;4354;49.832;10.746;2023-04-03T13:27:27;13.80;57.20
8633;DHT22;4354;49.832;10.746;2023-04-03T13:29:58;14.00;55.30
8633;DHT22;4354;49.832;10.746;2023-04-03T13:32:28;13.30;56.90
8633;DHT22;4354;49.832;10.746;2023-04-03T13:34:56;13.00;88.50
8633;DHT22;4354;49.832;10.746;2023-04-03T13:37:33;12.70;59.10
8633;DHT22;4354;49.832;10.746;2023-04-03T13:42:35;12.80;60.60
8633;DHT22;4354;49.832;10.746;2023-04-03T13:45:28;12.80;62.00
8633;DHT22;4354;49.832;10.746;2023-04-03T13:48:16;12.40;65.00
8633;DHT22;4354;49.832;10.746;2023-04-03T13:51:02;12.50;64.90
8633;DHT22;4354;49.832;10.746;2023-04-03T13:53:31;12.50;65.20
8633;DHT22;4354;49.832;10.746;2023-04-03T13:58:32;12.20;63.30
8633;DHT22;4354;49.832;10.746;2023-04-03T14:03:58;12.30;64.90
8633;DHT22;4354;49.832;10.746;2023-04-03T14:06:26;12.20;64.10
8633;DHT22;4354;49.832;10.746;2023-04-03T14:08:53;12.40;65.20
8633;DHT22;4354;49.832;10.746;2023-04-03T14:11:26;12.40;61.20
8633;DHT22;4354;49.832;10.746;2023-04-03T14:14:00;12.00;63.50
8633;DHT22;4354;49.832;10.746;2023-04-03T14:16:32;11.60;64.40
8633;DHT22;4354;49.832;10.746;2023-04-03T14:18:59;11.30;65.80
8633;DHT22;4354;49.832;10.746;2023-04-03T14:21:26;11.00;68.20
8633;DHT22;4354;49.832;10.746;2023-04-03T14:23:52;11.20;68.70
8633;DHT22;4354;49.832;10.746;2023-04-03T14:26:21;11.40;67.90
8633;DHT22;4354;49.832;10.746;2023-04-03T14:28:51;11.40;69.30
8633;DHT22;4354;49.832;10.746;2023-04-03T14:31:19;11.50;68.00
8633;DHT22;4354;49.832;10.746;2023-04-03T14:33:47;11.60;65.10
8633;DHT22;4354;49.832;10.746;2023-04-03T14:36:25;11.40;63.20
8633;DHT22;4354;49.832;10.746;2023-04-03T14:38:53;11.10;68.00
8633;DHT22;4354;49.832;10.746;2023-04-03T14:41:22;11.00;68.00
8633;DHT22;4354;49.832;10.746;2023-04-03T14:43:50;11.00;68.90
8633;DHT22;4354;49.832;10.746;2023-04-03T14:46:28;11.10;67.30
8633;DHT22;4354;49.832;10.746;2023-04-03T14:49:19;10.80;69.20
8633;DHT22;4354;49.832;10.746;2023-04-03T14:51:48;10.30;70.50
8633;DHT22;4354;49.832;10.746;2023-04-03T14:54:17;10.00;69.00
8633;DHT22;4354;49.832;10.746;2023-04-03T14:56:45;10.20;95.10
8633;DHT22;4354;49.832;10.746;2023-04-03T14:59:13;10.20;66.30
8633;DHT22;4354;49.832;10.746;2023-04-03T15:01:41;10.40;72.00
8633;DHT22;4354;49.832;10.746;2023-04-03T15:04:16;10.40;68.70
8633;DHT22;4354;49.832;10.746;2023-04-03T15:06:43;10.50;72.10
8633;DHT22;4354;49.832;10.746;2023-04-03T15:09:37;10.40;71.80
8633;DHT22;4354;49.832;10.746;2023-04-03T15:12:04;10.00;70.50
8633;DHT22;4354;49.832;10.746;2023-04-03T15:14:32;9.80;73.30
8633;DHT22;4354;49.832;10.746;2023-04-03T15:17:16;9.80;73.00
8633;DHT22;4354;49.832;10.746;2023-04-03T15:19:43;9.60;74.50
8633;DHT22;4354;49.832;10.746;2023-04-03T15:22:14;9.50;77.50
8633;DHT22;4354;49.832;10.746;2023-04-03T15:24:41;9.30;76.30
8633;DHT22;4354;49.832;10.746;2023-04-03T15:27:09;9.10;77.70
8633;DHT22;4354;49.832;10.746;2023-04-03T15:29:37;8.70;80.30
8633;DHT22;4354;49.832;10.746;2023-04-03T15:32:04;8.60;80.50
8633;DHT22;4354;49.832;10.746;2023-04-03T15:34:31;8.20;81.60
8633;DHT22;4354;49.832;10.746;2023-04-03T15:36:58;8.20;79.10
8633;DHT22;4354;49.832;10.746;2023-04-03T15:39:26;8.10;84.20
8633;DHT22;4354;49.832;10.746;2023-04-03T15:41:54;8.00;84.80
8633;DHT22;4354;49.832;10.746;2023-04-03T15:44:21;8.00;84.10
8633;DHT22;4354;49.832;10.746;2023-04-03T15:46:49;8.00;82.00
8633;DHT22;4354;49.832;10.746;2023-04-03T15:49:19;8.20;85.80
8633;DHT22;4354;49.832;10.746;2023-04-03T15:51:47;8.20;85.40
8633;DHT22;4354;49.832;10.746;2023-04-03T15:54:15;8.00;81.70
8633;DHT22;4354;49.832;10.746;2023-04-03T15:56:41;7.70;83.90
8633;DHT22;4354;49.832;10.746;2023-04-03T15:59:08;7.30;84.50
8633;DHT22;4354;49.832;10.746;2023-04-03T16:01:36;7.00;87.40
8633;DHT22;4354;49.832;10.746;2023-04-03T16:04:05;6.50;66.10
8633;DHT22;4354;49.832;10.746;2023-04-03T16:06:31;6.50;90.20
8633;DHT22;4354;49.832;10.746;2023-04-03T16:08:59;6.40;90.70
8633;DHT22;4354;49.832;10.746;2023-04-03T16:11:27;6.40;90.40
8633;DHT22;4354;49.832;10.746;2023-04-03T16:13:54;6.50;90.40
8633;DHT22;4354;49.832;10.746;2023-04-03T16:16:24;6.60;90.20
8633;DHT22;4354;49.832;10.746;2023-04-03T16:18:54;6.70;90.80
8633;DHT22;4354;49.832;10.746;2023-04-03T16:21:22;6.70;91.20
8633;DHT22;4354;49.832;10.746;2023-04-03T16:23:49;6.70;90.60
8633;DHT22;4354;49.832;10.746;2023-04-03T16:26:16;6.50;89.30
8633;DHT22;4354;49.832;10.746;2023-04-03T16:28:44;6.50;89.70
8633;DHT22;4354;49.832;10.746;2023-04-03T16:31:11;6.40;90.80
8633;DHT22;4354;49.832;10.746;2023-04-03T16:33:38;6.30;90.90
8633;DHT22;4354;49.832;10.746;2023-04-03T16:36:05;6.30;87.30
8633;DHT22;4354;49.832;10.746;2023-04-03T16:38:32;6.30;92.90
8633;DHT22;4354;49.832;10.746;2023-04-03T16:40:59;6.20;91.50
8633;DHT22;4354;49.832;10.746;2023-04-03T16:43:31;6.10;92.20
8633;DHT22;4354;49.832;10.746;2023-04-03T16:45:58;6.00;93.00
8633;DHT22;4354;49.832;10.746;2023-04-03T16:48:25;5.90;92.00
8633;DHT22;4354;49.832;10.746;2023-04-03T16:50:52;5.80;93.20
8633;DHT22;4354;49.832;10.746;2023-04-03T16:53:24;5.70;93.00
8633;DHT22;4354;49.832;10.746;2023-04-03T16:55:51;5.60;92.80
8633;DHT22;4354;49.832;10.746;2023-04-03T16:58:18;5.50;94.20
8633;DHT22;4354;49.832;10.746;2023-04-03T17:00:47;5.40;93.90
8633;DHT22;4354;49.832;10.746;2023-04-03T17:03:14;5.30;94.00
8633;DHT22;4354;49.832;10.746;2023-04-03T17:05:41;5.30;93.80
8633;DHT22;4354;49.832;10.746;2023-04-03T17:08:10;5.10;94.40
8633;DHT22;4354;49.832;10.746;2023-04-03T17:10:37;5.10;95.10
8633;DHT22;4354;49.832;10.746;2023-04-03T17:13:03;5.00;93.70
8633;DHT22;4354;49.832;10.746;2023-04-03T17:15:30;4.90;96.30
8633;DHT22;4354;49.832;10.746;2023-04-03T17:17:57;4.90;94.90
8633;DHT22;4354;49.832;10.746;2023-04-03T17:20:24;4.80;95.30
8633;DHT22;4354;49.832;10.746;2023-04-03T17:22:51;4.80;95.10
8633;DHT22;4354;49.832;10.746;2023-04-03T17:25:17;4.60;95.90
8633;DHT22;4354;49.832;10.746;2023-04-03T17:27:44;4.60;95.80
8633;DHT22;4354;49.832;10.746;2023-04-03T17:30:11;4.40;96.80
8633;DHT22;4354;49.832;10.746;2023-04-03T17:32:38;4.30;97.40
8633;DHT22;4354;49.832;10.746;2023-04-03T17:35:05;4.30;97.20
8633;DHT22;4354;49.832;10.746;2023-04-03T17:37:33;4.30;99.90
8633;DHT22;4354;49.832;10.746;2023-04-03T17:40:00;4.20;97.70
8633;DHT22;4354;49.832;10.746;2023-04-03T17:42:26;4.10;92.70
8633;DHT22;4354;49.832;10.746;2023-04-03T17:44:57;4.00;97.50
8633;DHT22;4354;49.832;10.746;2023-04-03T17:47:23;4.00;98.10